createdAt,value
2018-06-21T00:01:00.852Z,55.50
2018-06-21T00:03:28.963Z,55.30
2018-06-21T00:05:56.712Z,56.50
2018-06-21T00:08:24.448Z,57.80
2018-06-21T00:10:52.229Z,57.80
2018-06-21T00:13:19.971Z,57.20
2018-06-21T00:15:47.724Z,56.30
2018-06-21T00:18:15.472Z,56.70
2018-06-21T00:20:43.239Z,56.80
2018-06-21T00:25:38.767Z,56.20
2018-06-21T00:28:06.523Z,56.10
2018-06-21T00:33:02.119Z,56.80
2018-06-21T00:35:29.884Z,56.20
2018-06-21T00:37:57.656Z,55.80
2018-06-21T00:40:25.383Z,55.80
2018-06-21T00:42:53.154Z,55.30
2018-06-21T00:45:21.613Z,55.60
2018-06-21T00:47:49.403Z,55.60
2018-06-21T00:50:17.173Z,56.20
2018-06-21T00:52:44.958Z,56.10
2018-06-21T00:55:12.789Z,55.70
2018-06-21T00:57:40.534Z,55.80
2018-06-21T01:00:08.310Z,55.60
2018-06-21T01:02:36.053Z,56.40
2018-06-21T01:05:04.472Z,56.20
2018-06-21T01:07:32.754Z,56.30
2018-06-21T01:10:00.500Z,56.50
2018-06-21T01:12:28.261Z,56.50
2018-06-21T01:14:56.020Z,56.80
2018-06-21T01:17:23.767Z,56.70
2018-06-21T01:19:51.511Z,56.90
2018-06-21T01:22:19.243Z,57.20
2018-06-21T01:24:47.036Z,56.80
2018-06-21T01:27:14.796Z,56.20
2018-06-21T01:29:42.553Z,55.70
2018-06-21T01:32:10.276Z,55.60
2018-06-21T01:34:38.035Z,55.10
2018-06-21T01:37:05.845Z,55.30
2018-06-21T01:39:33.578Z,55.70
2018-06-21T01:42:01.328Z,55.60
2018-06-21T01:44:29.079Z,55.50
2018-06-21T01:46:56.815Z,55.60
2018-06-21T01:49:24.548Z,55.90
2018-06-21T01:51:52.337Z,57.00
2018-06-21T01:54:20.109Z,56.60
2018-06-21T01:56:47.867Z,56.80
2018-06-21T01:59:15.596Z,56.30
2018-06-21T02:01:43.363Z,55.90
2018-06-21T02:04:11.117Z,57.40
2018-06-21T02:06:38.853Z,58.00
2018-06-21T02:09:07.941Z,57.80
2018-06-21T02:11:35.703Z,57.60
2018-06-21T02:14:03.508Z,57.90
2018-06-21T02:16:31.267Z,57.30
2018-06-21T02:18:59.017Z,56.60
2018-06-21T02:21:26.769Z,56.90
2018-06-21T02:23:54.588Z,57.30
2018-06-21T02:26:22.334Z,57.20
2018-06-21T02:28:50.098Z,58.00
2018-06-21T02:31:17.869Z,58.30
2018-06-21T02:33:45.665Z,58.60
2018-06-21T02:36:13.410Z,57.70
2018-06-21T02:38:41.163Z,56.90
2018-06-21T02:41:09.072Z,56.70
2018-06-21T02:43:36.845Z,57.10
2018-06-21T02:46:05.036Z,58.20
2018-06-21T02:48:32.793Z,58.10
2018-06-21T02:51:00.539Z,58.40
2018-06-21T02:53:28.285Z,58.10
2018-06-21T02:55:56.052Z,57.00
2018-06-21T03:00:52.036Z,57.00
2018-06-21T03:03:20.090Z,57.30
2018-06-21T03:05:47.980Z,57.80
2018-06-21T03:08:15.736Z,58.00
2018-06-21T03:10:43.557Z,58.30
2018-06-21T03:13:11.332Z,58.70
2018-06-21T03:15:39.111Z,59.10
2018-06-21T03:18:06.901Z,59.30
2018-06-21T03:20:34.691Z,60.60
2018-06-21T03:23:02.451Z,59.50
2018-06-21T03:25:30.196Z,58.30
2018-06-21T03:30:25.750Z,58.70
2018-06-21T03:32:53.655Z,58.90
2018-06-21T03:35:21.457Z,59.80
2018-06-21T03:37:49.235Z,59.30
2018-06-21T03:40:16.996Z,59.60
2018-06-21T03:42:44.739Z,59.80
2018-06-21T03:45:12.535Z,59.90
2018-06-21T03:47:40.265Z,60.60
2018-06-21T03:50:08.034Z,60.40
2018-06-21T03:52:35.807Z,60.20
2018-06-21T03:55:03.772Z,60.70
2018-06-21T03:57:31.540Z,61.70
2018-06-21T03:59:59.300Z,61.40
2018-06-21T04:02:27.050Z,60.70
2018-06-21T04:04:54.767Z,61.40
2018-06-21T04:07:22.584Z,62.30
2018-06-21T04:09:50.327Z,62.00
2018-06-21T04:12:18.108Z,61.70
2018-06-21T04:14:45.860Z,60.30
2018-06-21T04:17:13.605Z,60.40
2018-06-21T04:19:41.340Z,59.80
2018-06-21T04:22:09.117Z,59.70
2018-06-21T04:24:37.085Z,59.30
2018-06-21T04:27:04.856Z,59.60
2018-06-21T04:29:32.609Z,59.10
2018-06-21T04:34:28.168Z,59.00
2018-06-21T04:36:55.953Z,59.80
2018-06-21T04:39:23.707Z,59.00
2018-06-21T04:41:51.475Z,59.40
2018-06-21T04:44:19.237Z,58.90
2018-06-21T04:46:46.996Z,59.30
2018-06-21T04:49:14.776Z,60.30
2018-06-21T04:51:42.598Z,60.50
2018-06-21T04:54:10.363Z,59.60
2018-06-21T04:56:38.200Z,59.60
2018-06-21T04:59:05.970Z,59.00
2018-06-21T05:01:33.823Z,59.10
2018-06-21T05:04:01.620Z,59.10
2018-06-21T05:06:29.379Z,59.00
2018-06-21T05:08:57.305Z,59.20
2018-06-21T05:11:25.111Z,59.30
2018-06-21T05:13:52.878Z,59.20
2018-06-21T05:16:20.668Z,60.00
2018-06-21T05:18:48.949Z,60.70
2018-06-21T05:21:16.803Z,60.40
2018-06-21T05:23:44.565Z,59.60
2018-06-21T05:26:12.510Z,58.90
2018-06-21T05:28:40.286Z,58.10
2018-06-21T05:33:35.792Z,58.40
2018-06-21T05:36:03.542Z,58.60
2018-06-21T05:38:31.259Z,57.80
2018-06-21T05:40:58.953Z,57.00
2018-06-21T05:43:26.689Z,56.50
2018-06-21T05:45:54.412Z,57.10
2018-06-21T05:48:22.082Z,56.90
2018-06-21T05:50:49.766Z,56.40
2018-06-21T05:53:17.465Z,57.30
2018-06-21T05:55:45.127Z,56.00
2018-06-21T05:58:12.819Z,54.90
2018-06-21T06:00:40.518Z,52.20
2018-06-21T06:03:08.230Z,51.30
2018-06-21T06:05:35.935Z,51.70
2018-06-21T06:08:03.651Z,52.20
2018-06-21T06:10:31.365Z,51.40
2018-06-21T06:12:59.187Z,51.40
2018-06-21T06:15:26.896Z,49.40
2018-06-21T06:17:54.617Z,49.30
2018-06-21T06:20:22.320Z,48.90
2018-06-21T06:22:50.034Z,49.90
2018-06-21T06:25:17.738Z,50.10
2018-06-21T06:27:45.426Z,50.00
2018-06-21T06:30:14.066Z,49.60
2018-06-21T06:32:41.790Z,50.00
2018-06-21T06:35:09.487Z,49.70
2018-06-21T06:37:37.241Z,50.10
2018-06-21T06:40:05.030Z,50.00
2018-06-21T06:42:33.184Z,50.20
2018-06-21T06:45:00.949Z,50.20
2018-06-21T06:47:28.709Z,49.30
2018-06-21T06:49:57.737Z,49.00
2018-06-21T06:52:25.609Z,49.30
2018-06-21T06:54:53.397Z,49.30
2018-06-21T06:57:21.152Z,48.80
2018-06-21T06:59:48.871Z,49.30
2018-06-21T07:02:16.637Z,48.60
2018-06-21T07:07:21.967Z,47.70
2018-06-21T07:09:49.700Z,48.20
2018-06-21T07:12:17.462Z,49.20
2018-06-21T07:14:45.203Z,48.30
2018-06-21T07:17:12.947Z,47.80
2018-06-21T07:19:40.709Z,48.60
2018-06-21T07:22:08.448Z,48.40
2018-06-21T07:24:36.194Z,49.00
2018-06-21T07:27:03.967Z,47.80
2018-06-21T07:29:31.685Z,49.00
2018-06-21T07:31:59.454Z,49.40
2018-06-21T07:34:27.246Z,48.20
2018-06-21T07:39:23.012Z,47.50
2018-06-21T07:41:50.853Z,46.70
2018-06-21T07:46:46.505Z,46.70
2018-06-21T07:51:42.388Z,45.40
2018-06-21T07:54:10.203Z,45.10
2018-06-21T07:56:37.979Z,44.50
2018-06-21T07:59:05.778Z,44.00
2018-06-21T08:01:33.516Z,43.10
2018-06-21T08:04:01.330Z,43.90
2018-06-21T08:06:29.161Z,44.20
2018-06-21T08:08:56.951Z,43.30
2018-06-21T08:11:25.467Z,44.20
2018-06-21T08:13:53.227Z,44.00
2018-06-21T08:16:21.034Z,44.50
2018-06-21T08:18:48.883Z,45.00
2018-06-21T08:21:16.636Z,44.30
2018-06-21T08:23:44.355Z,43.00
2018-06-21T08:26:12.131Z,42.30
2018-06-21T08:28:39.910Z,41.90
2018-06-21T08:31:07.649Z,42.10
2018-06-21T08:33:35.544Z,41.90
2018-06-21T08:36:03.595Z,42.10
2018-06-21T08:38:31.352Z,41.50
2018-06-21T08:40:59.105Z,41.80
2018-06-21T08:43:28.122Z,40.80
2018-06-21T08:45:55.868Z,37.80
2018-06-21T08:48:23.684Z,36.60
2018-06-21T08:53:19.334Z,37.60
2018-06-21T08:58:14.879Z,36.60
2018-06-21T09:00:42.805Z,35.60
2018-06-21T09:03:10.523Z,35.30
2018-06-21T09:05:38.273Z,35.60
2018-06-21T09:08:05.996Z,34.50
2018-06-21T09:10:33.787Z,34.90
2018-06-21T09:13:01.569Z,34.80
2018-06-21T09:15:29.828Z,35.60
2018-06-21T09:17:57.575Z,32.00
2018-06-21T09:20:25.307Z,32.00
2018-06-21T09:22:53.070Z,33.30
2018-06-21T09:25:20.878Z,33.50
2018-06-21T09:27:48.700Z,33.80
2018-06-21T09:30:16.516Z,33.80
2018-06-21T09:32:44.291Z,33.00
2018-06-21T09:35:12.177Z,32.50
2018-06-21T09:37:45.665Z,33.20
2018-06-21T09:40:19.220Z,34.10
2018-06-21T09:42:52.750Z,33.20
2018-06-21T09:45:27.508Z,34.60
2018-06-21T09:48:01.110Z,34.30
2018-06-21T09:50:29.141Z,32.50
2018-06-21T09:52:56.903Z,33.70
2018-06-21T09:55:25.198Z,32.90
2018-06-21T09:57:52.979Z,32.50
2018-06-21T10:00:26.666Z,30.10
2018-06-21T10:02:54.484Z,30.70
2018-06-21T10:05:22.206Z,30.30
2018-06-21T10:07:50.128Z,30.30
2018-06-21T10:10:18.076Z,30.30
2018-06-21T10:12:45.835Z,30.50
2018-06-21T10:15:15.154Z,30.00
2018-06-21T10:17:42.989Z,30.50
2018-06-21T10:20:10.801Z,30.80
2018-06-21T10:22:38.619Z,29.80
2018-06-21T10:25:07.627Z,29.80
2018-06-21T10:27:36.244Z,30.10
2018-06-21T10:30:04.160Z,28.80
2018-06-21T10:32:32.599Z,29.40
2018-06-21T10:35:00.576Z,30.00
2018-06-21T10:37:28.470Z,29.50
2018-06-21T10:39:56.261Z,28.60
2018-06-21T10:42:24.205Z,29.00
2018-06-21T10:44:52.149Z,29.30
2018-06-21T10:47:19.935Z,29.30
2018-06-21T10:49:47.737Z,29.70
2018-06-21T10:52:15.508Z,30.10
2018-06-21T10:54:43.375Z,29.00
2018-06-21T10:57:11.463Z,30.20
2018-06-21T10:59:39.276Z,28.50
2018-06-21T11:02:07.298Z,28.10
2018-06-21T11:04:35.115Z,27.30
2018-06-21T11:07:03.023Z,27.50
2018-06-21T11:09:30.729Z,28.30
2018-06-21T11:11:58.566Z,28.40
2018-06-21T11:14:26.447Z,28.90
2018-06-21T11:16:54.314Z,27.80
2018-06-21T11:19:22.951Z,26.10
2018-06-21T11:21:50.711Z,27.50
2018-06-21T11:24:18.636Z,26.40
2018-06-21T11:26:46.478Z,27.40
2018-06-21T11:29:14.370Z,27.30
2018-06-21T11:34:10.109Z,26.40
2018-06-21T11:39:08.166Z,26.50
2018-06-21T11:41:36.025Z,26.80
2018-06-21T11:44:03.871Z,26.20
2018-06-21T11:46:31.850Z,24.50
2018-06-21T11:48:59.952Z,24.60
2018-06-21T11:51:28.271Z,26.30
2018-06-21T11:53:56.761Z,24.30
2018-06-21T11:56:24.590Z,24.80
2018-06-21T11:58:52.548Z,25.20
2018-06-21T12:01:20.538Z,25.00
2018-06-21T12:03:48.413Z,25.30
2018-06-21T12:06:16.455Z,26.10
2018-06-21T12:08:44.385Z,25.50
2018-06-21T12:11:13.135Z,26.30
2018-06-21T12:13:41.839Z,26.10
2018-06-21T12:16:09.862Z,25.30
2018-06-21T12:18:37.882Z,25.60
2018-06-21T12:21:06.204Z,25.40
2018-06-21T12:23:34.241Z,25.20
2018-06-21T12:26:03.201Z,25.60
2018-06-21T12:28:31.238Z,25.50
2018-06-21T12:30:59.249Z,25.30
2018-06-21T12:33:27.154Z,26.50
2018-06-21T12:35:54.953Z,26.10
2018-06-21T12:38:22.668Z,28.50
2018-06-21T12:40:50.398Z,32.40
2018-06-21T12:43:18.216Z,32.30
2018-06-21T12:48:13.931Z,38.10
2018-06-21T12:50:41.782Z,39.40
2018-06-21T12:53:09.569Z,39.50
2018-06-21T12:55:37.408Z,39.50
2018-06-21T12:58:05.249Z,39.20
2018-06-21T13:00:33.014Z,39.40
2018-06-21T13:03:00.799Z,39.90
2018-06-21T13:05:28.584Z,38.80
2018-06-21T13:07:56.256Z,38.10
2018-06-21T13:10:41.278Z,38.80
2018-06-21T13:13:21.791Z,39.50
2018-06-21T13:15:49.573Z,40.00
2018-06-21T13:18:17.317Z,39.20
2018-06-21T13:20:45.642Z,39.80
2018-06-21T13:23:13.440Z,40.70
2018-06-21T13:25:41.233Z,39.10
2018-06-21T13:28:08.945Z,40.30
2018-06-21T13:30:36.708Z,41.50
2018-06-21T13:33:04.782Z,42.50
2018-06-21T13:35:32.586Z,43.40
2018-06-21T13:38:00.418Z,44.30
2018-06-21T13:40:28.202Z,44.20
2018-06-21T13:42:55.976Z,43.70
2018-06-21T13:45:23.743Z,43.20
2018-06-21T13:47:51.516Z,44.70
2018-06-21T13:50:19.291Z,43.40
2018-06-21T13:52:47.025Z,44.10
2018-06-21T13:55:14.829Z,45.70
2018-06-21T13:57:42.569Z,45.50
2018-06-21T14:00:10.353Z,44.40
2018-06-21T14:02:38.142Z,43.80
2018-06-21T14:05:05.919Z,43.90
2018-06-21T14:07:33.891Z,44.80
2018-06-21T14:10:01.574Z,46.10
2018-06-21T14:12:29.303Z,46.00
2018-06-21T14:14:57.031Z,46.30
2018-06-21T14:17:24.801Z,47.40
2018-06-21T14:19:52.556Z,48.40
2018-06-21T14:22:20.269Z,46.50
2018-06-21T14:24:48.033Z,46.20
2018-06-21T14:29:43.583Z,45.60
2018-06-21T14:32:11.343Z,46.10
2018-06-21T14:34:39.070Z,46.00
2018-06-21T14:37:06.822Z,46.10
2018-06-21T14:39:34.707Z,45.80
2018-06-21T14:42:02.467Z,45.00
2018-06-21T14:44:30.183Z,46.40
2018-06-21T14:46:57.960Z,46.30
2018-06-21T14:49:25.719Z,45.90
2018-06-21T14:51:53.438Z,45.00
2018-06-21T14:54:23.235Z,43.40
2018-06-21T14:59:18.773Z,44.70
2018-06-21T15:01:46.658Z,45.70
2018-06-21T15:04:14.443Z,47.50
2018-06-21T15:06:42.200Z,59.20
2018-06-21T15:11:40.071Z,56.60
2018-06-21T15:14:07.811Z,55.80
2018-06-21T15:16:35.533Z,55.40
2018-06-21T15:19:03.328Z,54.00
2018-06-21T15:21:31.033Z,52.80
2018-06-21T15:23:58.777Z,52.30
2018-06-21T15:26:26.505Z,53.20
2018-06-21T15:28:54.256Z,52.40
2018-06-21T15:31:22.022Z,52.40
2018-06-21T15:33:49.771Z,51.80
2018-06-21T15:36:17.527Z,49.10
2018-06-21T15:38:45.260Z,47.10
2018-06-21T15:41:13.006Z,48.10
2018-06-21T15:43:40.738Z,47.00
2018-06-21T15:46:08.483Z,45.70
2018-06-21T15:48:36.205Z,46.80
2018-06-21T15:51:04.019Z,46.70
2018-06-21T15:53:31.729Z,45.50
2018-06-21T15:55:59.471Z,44.10
2018-06-21T15:58:27.229Z,43.30
2018-06-21T16:00:55.013Z,44.60
2018-06-21T16:03:22.987Z,45.80
2018-06-21T16:05:50.876Z,44.80
2018-06-21T16:08:18.630Z,45.30
2018-06-21T16:10:46.320Z,45.70
2018-06-21T16:13:15.003Z,46.00
2018-06-21T16:15:43.227Z,45.40
2018-06-21T16:18:11.043Z,45.90
2018-06-21T16:20:39.045Z,45.00
2018-06-21T16:23:06.768Z,45.00
2018-06-21T16:25:34.727Z,45.30
2018-06-21T16:28:02.534Z,45.70
2018-06-21T16:30:30.223Z,49.50
2018-06-21T16:32:57.906Z,67.30
2018-06-21T16:35:25.885Z,71.40
2018-06-21T16:37:53.608Z,73.60
2018-06-21T16:40:21.314Z,74.30
2018-06-21T16:42:49.038Z,70.10
2018-06-21T16:45:16.742Z,68.60
2018-06-21T16:47:44.439Z,67.40
2018-06-21T16:50:12.183Z,66.70
2018-06-21T16:52:40.578Z,66.20
2018-06-21T16:55:08.479Z,62.60
2018-06-21T16:57:37.859Z,63.40
2018-06-21T17:00:06.394Z,61.00
2018-06-21T17:02:34.229Z,60.80
2018-06-21T17:05:02.056Z,61.90
2018-06-21T17:07:29.819Z,61.20
2018-06-21T17:09:58.218Z,60.80
2018-06-21T17:12:26.288Z,60.30
2018-06-21T17:14:56.491Z,59.10
2018-06-21T17:17:29.107Z,59.20
2018-06-21T17:20:00.145Z,56.20
2018-06-21T17:22:29.255Z,55.70
2018-06-21T17:24:58.874Z,55.80
2018-06-21T17:27:26.731Z,56.40
2018-06-21T17:29:55.159Z,57.40
2018-06-21T17:34:51.544Z,58.60
2018-06-21T17:37:20.252Z,58.60
2018-06-21T17:39:48.706Z,57.20
2018-06-21T17:42:16.450Z,56.20
2018-06-21T17:44:44.152Z,54.40
2018-06-21T17:47:11.907Z,51.40
2018-06-21T17:49:39.599Z,52.30
2018-06-21T17:54:35.143Z,52.80
2018-06-21T17:57:02.868Z,53.20
2018-06-21T17:59:30.600Z,54.50
2018-06-21T18:01:58.313Z,54.90
2018-06-21T18:04:26.006Z,55.30
2018-06-21T18:06:53.749Z,55.80
2018-06-21T18:09:21.542Z,57.00
2018-06-21T18:11:49.534Z,58.20
2018-06-21T18:14:17.297Z,58.50
2018-06-21T18:16:44.990Z,58.50
2018-06-21T18:19:12.731Z,57.40
2018-06-21T18:21:40.426Z,56.40
2018-06-21T18:24:08.219Z,55.70
2018-06-21T18:26:35.971Z,55.20
2018-06-21T18:29:03.727Z,53.10
2018-06-21T18:31:31.484Z,52.50
2018-06-21T18:33:59.242Z,52.30
2018-06-21T18:36:27.103Z,50.90
2018-06-21T18:38:54.814Z,50.00
2018-06-21T18:41:22.514Z,51.80
2018-06-21T18:43:50.225Z,51.30
2018-06-21T18:46:17.902Z,51.60
2018-06-21T18:48:45.644Z,52.10
2018-06-21T18:51:13.402Z,52.00
2018-06-21T18:53:41.183Z,52.70
2018-06-21T18:56:08.903Z,53.70
2018-06-21T18:58:36.887Z,55.00
2018-06-21T19:01:04.627Z,56.30
2018-06-21T19:03:35.266Z,55.90
2018-06-21T19:06:03.084Z,55.20
2018-06-21T19:08:36.586Z,54.20
2018-06-21T19:11:10.157Z,55.60
2018-06-21T19:13:42.942Z,54.80
2018-06-21T19:16:10.820Z,53.80
2018-06-21T19:18:38.511Z,54.60
2018-06-21T19:21:06.292Z,54.50
2018-06-21T19:23:34.023Z,53.80
2018-06-21T19:26:01.691Z,53.70
2018-06-21T19:28:29.401Z,53.60
2018-06-21T19:30:59.297Z,54.00
2018-06-21T19:33:27.051Z,54.70
2018-06-21T19:35:54.780Z,55.90
2018-06-21T19:38:23.205Z,56.00
2018-06-21T19:40:50.954Z,55.40
2018-06-21T19:43:18.967Z,55.30
2018-06-21T19:45:46.794Z,55.60
2018-06-21T19:48:15.540Z,55.00
2018-06-21T19:50:43.296Z,54.70
2018-06-21T19:53:11.237Z,55.60
2018-06-21T19:55:38.966Z,55.20
2018-06-21T19:58:06.799Z,54.90
2018-06-21T20:03:04.757Z,54.00
2018-06-21T20:05:32.575Z,53.80
2018-06-21T20:08:00.286Z,53.00
2018-06-21T20:10:28.057Z,52.80
2018-06-21T20:12:55.947Z,52.00
2018-06-21T20:15:23.635Z,52.70
2018-06-21T20:17:51.285Z,53.50
2018-06-21T20:20:24.716Z,54.20
2018-06-21T20:22:52.428Z,54.90
2018-06-21T20:25:20.153Z,55.20
2018-06-21T20:27:47.886Z,54.00
2018-06-21T20:30:15.778Z,53.80
2018-06-21T20:32:43.810Z,53.90
2018-06-21T20:35:12.179Z,54.70
2018-06-21T20:37:39.940Z,54.80
2018-06-21T20:40:07.781Z,55.50
2018-06-21T20:42:35.576Z,55.90
2018-06-21T20:47:31.665Z,55.70
2018-06-21T20:49:59.578Z,54.30
2018-06-21T20:52:29.559Z,54.70
2018-06-21T20:54:58.253Z,53.50
2018-06-21T20:57:26.856Z,53.00
2018-06-21T20:59:54.664Z,52.90
2018-06-21T21:02:22.391Z,51.80
2018-06-21T21:05:08.298Z,50.70
2018-06-21T21:07:36.091Z,49.90
2018-06-21T21:10:05.611Z,49.90
2018-06-21T21:12:33.323Z,50.00
2018-06-21T21:15:02.126Z,50.80
2018-06-21T21:17:29.876Z,50.90
2018-06-21T21:19:57.649Z,51.10
2018-06-21T21:22:25.371Z,52.10
2018-06-21T21:24:53.081Z,51.80
2018-06-21T21:27:20.783Z,52.50
2018-06-21T21:29:48.495Z,53.00
2018-06-21T21:32:16.403Z,53.50
2018-06-21T21:34:44.128Z,52.10
2018-06-21T21:37:11.970Z,53.10
2018-06-21T21:39:39.747Z,54.00
2018-06-21T21:42:07.422Z,54.50
2018-06-21T21:44:35.126Z,55.40
2018-06-21T21:47:04.244Z,54.40
2018-06-21T21:49:31.907Z,53.70
2018-06-21T21:51:59.579Z,53.40
2018-06-21T21:54:27.253Z,53.90
2018-06-21T21:56:54.944Z,53.80
2018-06-21T21:59:22.656Z,54.20
2018-06-21T22:01:50.359Z,53.40
2018-06-21T22:04:18.068Z,53.00
2018-06-21T22:06:45.813Z,52.60
2018-06-21T22:09:13.483Z,54.10
2018-06-21T22:11:41.147Z,54.90
2018-06-21T22:14:08.863Z,55.10
2018-06-21T22:16:36.811Z,54.70
2018-06-21T22:19:05.560Z,53.10
2018-06-21T22:21:33.336Z,54.40
2018-06-21T22:24:01.006Z,54.70
2018-06-21T22:26:28.953Z,53.00
2018-06-21T22:28:56.761Z,52.90
2018-06-21T22:31:24.435Z,53.50
2018-06-21T22:33:52.211Z,53.00
2018-06-21T22:36:20.356Z,54.40
2018-06-21T22:38:48.019Z,54.20
2018-06-21T22:41:15.767Z,52.70
2018-06-21T22:43:43.433Z,52.60
2018-06-21T22:46:11.159Z,52.20
2018-06-21T22:51:06.643Z,53.30
2018-06-21T22:53:34.346Z,52.50
2018-06-21T22:56:02.043Z,52.20
2018-06-21T22:58:29.765Z,51.90
2018-06-21T23:00:57.457Z,51.80
2018-06-21T23:03:25.182Z,51.70
2018-06-21T23:05:52.982Z,51.90
2018-06-21T23:08:20.718Z,52.80
2018-06-21T23:10:48.409Z,52.70
2018-06-21T23:13:16.107Z,51.70
2018-06-21T23:15:43.838Z,51.10
2018-06-21T23:18:18.338Z,51.30
2018-06-21T23:20:46.023Z,50.40
2018-06-21T23:23:13.730Z,50.30
2018-06-21T23:25:41.450Z,50.70
2018-06-21T23:28:09.144Z,50.70
2018-06-21T23:33:04.786Z,52.00
2018-06-21T23:38:00.294Z,52.60
2018-06-21T23:40:27.991Z,52.00
2018-06-21T23:42:55.737Z,50.90
2018-06-21T23:45:23.465Z,51.00
2018-06-21T23:47:51.138Z,51.10
2018-06-21T23:50:18.851Z,52.50
2018-06-21T23:52:46.577Z,53.10
2018-06-21T23:55:14.273Z,52.40
2018-06-21T23:57:41.971Z,52.90
